sensor_id;sensor_type;location;lat;lon;timestamp;temperature;humidity
54684;DHT22;40582;53.100;6.686;2023-03-01T00:01:59;0.40;99.90
54684;DHT22;40582;53.100;6.686;2023-03-01T00:04:24;0.50;99.90
54684;DHT22;40582;53.100;6.686;2023-03-01T00:06:50;0.70;99.90
54684;DHT22;40582;53.100;6.686;2023-03-01T00:09:16;0.10;99.90
54684;DHT22;40582;53.100;6.686;2023-03-01T00:11:43;0.10;99.90
54684;DHT22;40582;53.100;6.686;2023-03-01T00:14:08;1.30;99.90
54684;DHT22;40582;53.100;6.686;2023-03-01T00:16:37;0.10;99.90
54684;DHT22;40582;53.100;6.686;2023-03-01T00:19:05;0.40;99.90
54684;DHT22;40582;53.100;6.686;2023-03-01T00:21:31;0.20;99.90
54684;DHT22;40582;53.100;6.686;2023-03-01T00:23:57;0.20;99.90
54684;DHT22;40582;53.100;6.686;2023-03-01T00:26:24;0.30;99.90
54684;DHT22;40582;53.100;6.686;2023-03-01T00:28:50;1.30;99.90
54684;DHT22;40582;53.100;6.686;2023-03-01T00:31:19;1.10;99.90
54684;DHT22;40582;53.100;6.686;2023-03-01T00:33:45;0.40;99.90
54684;DHT22;40582;53.100;6.686;2023-03-01T00:36:13;1.30;99.90
54684;DHT22;40582;53.100;6.686;2023-03-01T00:38:42;0.30;99.90
54684;DHT22;40582;53.100;6.686;2023-03-01T00:41:13;1.20;99.90
54684;DHT22;40582;53.100;6.686;2023-03-01T00:43:39;0.40;99.90
54684;DHT22;40582;53.100;6.686;2023-03-01T00:46:08;0.60;99.90
54684;DHT22;40582;53.100;6.686;2023-03-01T00:48:35;1.00;99.90
54684;DHT22;40582;53.100;6.686;2023-03-01T00:51:12;0.60;99.90
54684;DHT22;40582;53.100;6.686;2023-03-01T00:53:38;0.70;99.90
54684;DHT22;40582;53.100;6.686;2023-03-01T00:56:05;0.40;99.90
54684;DHT22;40582;53.100;6.686;2023-03-01T00:58:31;0.30;99.90
54684;DHT22;40582;53.100;6.686;2023-03-01T01:00:57;0.20;99.90
54684;DHT22;40582;53.100;6.686;2023-03-01T01:03:23;0.50;99.90
54684;DHT22;40582;53.100;6.686;2023-03-01T01:05:51;0.30;99.90
54684;DHT22;40582;53.100;6.686;2023-03-01T01:08:18;0.10;99.90
54684;DHT22;40582;53.100;6.686;2023-03-01T01:10:45;0.10;99.90
54684;DHT22;40582;53.100;6.686;2023-03-01T01:13:11;0.80;99.90
54684;DHT22;40582;53.100;6.686;2023-03-01T01:15:36;0.00;99.90
54684;DHT22;40582;53.100;6.686;2023-03-01T01:18:02;0.60;99.90
54684;DHT22;40582;53.100;6.686;2023-03-01T01:20:28;0.10;99.90
54684;DHT22;40582;53.100;6.686;2023-03-01T01:22:54;-0.20;99.90
54684;DHT22;40582;53.100;6.686;2023-03-01T01:25:20;-0.20;99.90
54684;DHT22;40582;53.100;6.686;2023-03-01T01:27:46;0.50;99.90
54684;DHT22;40582;53.100;6.686;2023-03-01T01:30:12;-0.30;99.90
54684;DHT22;40582;53.100;6.686;2023-03-01T01:32:38;-0.40;99.90
54684;DHT22;40582;53.100;6.686;2023-03-01T01:35:05;-0.40;99.90
54684;DHT22;40582;53.100;6.686;2023-03-01T01:37:30;-0.40;99.90
54684;DHT22;40582;53.100;6.686;2023-03-01T01:39:58;-0.40;99.90
54684;DHT22;40582;53.100;6.686;2023-03-01T01:42:24;-0.40;99.90
54684;DHT22;40582;53.100;6.686;2023-03-01T01:45:24;-0.20;99.90
54684;DHT22;40582;53.100;6.686;2023-03-01T01:47:51;-0.40;99.90
54684;DHT22;40582;53.100;6.686;2023-03-01T01:50:18;0.90;99.90
54684;DHT22;40582;53.100;6.686;2023-03-01T01:52:45;-0.30;99.90
54684;DHT22;40582;53.100;6.686;2023-03-01T01:55:16;-0.30;99.90
54684;DHT22;40582;53.100;6.686;2023-03-01T01:57:48;0.20;99.90
54684;DHT22;40582;53.100;6.686;2023-03-01T02:00:23;-0.40;99.90
54684;DHT22;40582;53.100;6.686;2023-03-01T02:03:10;-0.40;99.90
54684;DHT22;40582;53.100;6.686;2023-03-01T02:08:14;-0.40;99.90
54684;DHT22;40582;53.100;6.686;2023-03-01T02:10:42;0.60;99.90
54684;DHT22;40582;53.100;6.686;2023-03-01T02:13:08;-0.30;99.90
54684;DHT22;40582;53.100;6.686;2023-03-01T02:15:36;-0.30;99.90
54684;DHT22;40582;53.100;6.686;2023-03-01T02:18:04;0.30;99.90
54684;DHT22;40582;53.100;6.686;2023-03-01T02:23:38;-0.50;99.90
54684;DHT22;40582;53.100;6.686;2023-03-01T02:28:36;-0.50;99.90
54684;DHT22;40582;53.100;6.686;2023-03-01T02:31:05;0.00;99.90
54684;DHT22;40582;53.100;6.686;2023-03-01T02:33:51;-0.60;99.90
54684;DHT22;40582;53.100;6.686;2023-03-01T02:36:39;-0.70;99.90
54684;DHT22;40582;53.100;6.686;2023-03-01T02:39:07;-0.60;99.90
54684;DHT22;40582;53.100;6.686;2023-03-01T02:41:42;0.60;99.90
54684;DHT22;40582;53.100;6.686;2023-03-01T02:44:08;-0.50;99.90
54684;DHT22;40582;53.100;6.686;2023-03-01T02:46:42;0.00;99.90
54684;DHT22;40582;53.100;6.686;2023-03-01T02:49:25;-0.60;99.90
54684;DHT22;40582;53.100;6.686;2023-03-01T02:52:23;0.60;99.90
54684;DHT22;40582;53.100;6.686;2023-03-01T02:57:31;-0.70;99.90
54684;DHT22;40582;53.100;6.686;2023-03-01T03:00:03;-0.70;99.90
54684;DHT22;40582;53.100;6.686;2023-03-01T03:02:33;-0.10;99.90
54684;DHT22;40582;53.100;6.686;2023-03-01T03:05:16;-0.70;99.90
54684;DHT22;40582;53.100;6.686;2023-03-01T03:07:44;-0.70;99.90
54684;DHT22;40582;53.100;6.686;2023-03-01T03:10:13;-0.70;99.90
54684;DHT22;40582;53.100;6.686;2023-03-01T03:12:40;-0.70;99.90
54684;DHT22;40582;53.100;6.686;2023-03-01T03:15:07;-0.50;99.90
54684;DHT22;40582;53.100;6.686;2023-03-01T03:17:37;-0.70;99.90
54684;DHT22;40582;53.100;6.686;2023-03-01T03:20:05;-0.80;99.90
54684;DHT22;40582;53.100;6.686;2023-03-01T03:22:31;-0.70;99.90
54684;DHT22;40582;53.100;6.686;2023-03-01T03:24:59;-0.90;99.90
54684;DHT22;40582;53.100;6.686;2023-03-01T03:27:25;-0.90;99.90
54684;DHT22;40582;53.100;6.686;2023-03-01T03:29:51;-1.00;99.90
54684;DHT22;40582;53.100;6.686;2023-03-01T03:32:16;-1.00;99.90
54684;DHT22;40582;53.100;6.686;2023-03-01T03:34:42;-0.20;99.90
54684;DHT22;40582;53.100;6.686;2023-03-01T03:37:08;-1.10;99.90
54684;DHT22;40582;53.100;6.686;2023-03-01T03:39:53;-1.10;99.90
54684;DHT22;40582;53.100;6.686;2023-03-01T03:42:21;-1.00;99.90
54684;DHT22;40582;53.100;6.686;2023-03-01T03:44:47;-1.10;99.90
54684;DHT22;40582;53.100;6.686;2023-03-01T03:47:13;-0.30;99.90
54684;DHT22;40582;53.100;6.686;2023-03-01T03:49:39;-1.20;99.90
54684;DHT22;40582;53.100;6.686;2023-03-01T03:52:05;-1.30;99.90
54684;DHT22;40582;53.100;6.686;2023-03-01T03:54:40;-0.70;99.90
54684;DHT22;40582;53.100;6.686;2023-03-01T03:57:06;-1.20;99.90
54684;DHT22;40582;53.100;6.686;2023-03-01T03:59:32;-0.70;99.90
54684;DHT22;40582;53.100;6.686;2023-03-01T04:01:58;-0.60;99.90
54684;DHT22;40582;53.100;6.686;2023-03-01T04:04:24;-0.40;99.90
54684;DHT22;40582;53.100;6.686;2023-03-01T04:06:49;-1.20;99.90
54684;DHT22;40582;53.100;6.686;2023-03-01T04:09:15;-1.10;99.90
54684;DHT22;40582;53.100;6.686;2023-03-01T04:11:41;-1.10;99.90
54684;DHT22;40582;53.100;6.686;2023-03-01T04:14:06;-1.10;99.90
54684;DHT22;40582;53.100;6.686;2023-03-01T04:16:32;-1.10;99.90
54684;DHT22;40582;53.100;6.686;2023-03-01T04:18:58;-1.10;99.90
54684;DHT22;40582;53.100;6.686;2023-03-01T04:21:25;-1.20;99.90
54684;DHT22;40582;53.100;6.686;2023-03-01T04:23:51;-1.30;99.90
54684;DHT22;40582;53.100;6.686;2023-03-01T04:26:19;-1.20;99.90
54684;DHT22;40582;53.100;6.686;2023-03-01T04:28:45;-1.10;99.90
54684;DHT22;40582;53.100;6.686;2023-03-01T04:31:15;-1.20;99.90
54684;DHT22;40582;53.100;6.686;2023-03-01T04:33:46;0.50;99.90
54684;DHT22;40582;53.100;6.686;2023-03-01T04:36:14;-1.10;99.90
54684;DHT22;40582;53.100;6.686;2023-03-01T04:38:40;-0.20;99.90
54684;DHT22;40582;53.100;6.686;2023-03-01T04:41:08;-1.10;99.90
54684;DHT22;40582;53.100;6.686;2023-03-01T04:43:35;-1.20;99.90
54684;DHT22;40582;53.100;6.686;2023-03-01T04:46:06;-0.40;99.90
54684;DHT22;40582;53.100;6.686;2023-03-01T04:48:33;-1.20;99.90
54684;DHT22;40582;53.100;6.686;2023-03-01T04:50:59;-0.70;99.90
54684;DHT22;40582;53.100;6.686;2023-03-01T04:53:26;-0.20;99.90
54684;DHT22;40582;53.100;6.686;2023-03-01T04:55:54;-1.10;99.90
54684;DHT22;40582;53.100;6.686;2023-03-01T04:58:19;-1.10;99.90
54684;DHT22;40582;53.100;6.686;2023-03-01T05:00:45;-0.10;99.90
54684;DHT22;40582;53.100;6.686;2023-03-01T05:03:11;-1.30;99.90
54684;DHT22;40582;53.100;6.686;2023-03-01T05:05:38;-1.30;99.90
54684;DHT22;40582;53.100;6.686;2023-03-01T05:08:06;-0.50;99.90
54684;DHT22;40582;53.100;6.686;2023-03-01T05:10:34;-1.30;99.90
54684;DHT22;40582;53.100;6.686;2023-03-01T05:13:01;-1.30;99.90
54684;DHT22;40582;53.100;6.686;2023-03-01T05:15:29;-1.50;99.90
54684;DHT22;40582;53.100;6.686;2023-03-01T05:17:56;-1.50;99.90
54684;DHT22;40582;53.100;6.686;2023-03-01T05:20:24;-1.20;99.90
54684;DHT22;40582;53.100;6.686;2023-03-01T05:22:52;-0.70;99.90
54684;DHT22;40582;53.100;6.686;2023-03-01T05:25:19;-1.20;99.90
54684;DHT22;40582;53.100;6.686;2023-03-01T05:27:47;-1.10;99.90
54684;DHT22;40582;53.100;6.686;2023-03-01T05:30:13;-1.50;99.90
54684;DHT22;40582;53.100;6.686;2023-03-01T05:32:43;-1.60;99.90
54684;DHT22;40582;53.100;6.686;2023-03-01T05:35:12;-0.20;99.90
54684;DHT22;40582;53.100;6.686;2023-03-01T05:37:43;-1.20;99.90
54684;DHT22;40582;53.100;6.686;2023-03-01T05:40:11;-1.30;99.90
54684;DHT22;40582;53.100;6.686;2023-03-01T05:42:59;-1.80;99.90
54684;DHT22;40582;53.100;6.686;2023-03-01T05:45:26;-1.90;99.90
54684;DHT22;40582;53.100;6.686;2023-03-01T05:47:52;-1.90;99.90
54684;DHT22;40582;53.100;6.686;2023-03-01T05:50:26;-1.30;99.90
54684;DHT22;40582;53.100;6.686;2023-03-01T05:53:04;-1.70;99.90
54684;DHT22;40582;53.100;6.686;2023-03-01T05:55:34;-1.00;99.90
54684;DHT22;40582;53.100;6.686;2023-03-01T05:58:02;-1.90;99.90
54684;DHT22;40582;53.100;6.686;2023-03-01T06:00:29;-1.90;99.90
54684;DHT22;40582;53.100;6.686;2023-03-01T06:02:56;-1.30;99.90
54684;DHT22;40582;53.100;6.686;2023-03-01T06:05:22;-1.90;99.90
54684;DHT22;40582;53.100;6.686;2023-03-01T06:07:48;-2.00;99.90
54684;DHT22;40582;53.100;6.686;2023-03-01T06:10:15;-0.50;99.90
54684;DHT22;40582;53.100;6.686;2023-03-01T06:12:42;-2.00;99.90
54684;DHT22;40582;53.100;6.686;2023-03-01T06:15:10;-1.40;99.90
54684;DHT22;40582;53.100;6.686;2023-03-01T06:17:39;-2.10;99.90
54684;DHT22;40582;53.100;6.686;2023-03-01T06:20:12;-1.40;99.90
54684;DHT22;40582;53.100;6.686;2023-03-01T06:22:39;-2.10;99.90
54684;DHT22;40582;53.100;6.686;2023-03-01T06:25:05;-2.00;99.90
54684;DHT22;40582;53.100;6.686;2023-03-01T06:27:31;-2.00;99.90
54684;DHT22;40582;53.100;6.686;2023-03-01T06:29:56;-1.60;99.90
54684;DHT22;40582;53.100;6.686;2023-03-01T06:32:22;-1.90;99.90
54684;DHT22;40582;53.100;6.686;2023-03-01T06:34:49;-1.80;99.90
54684;DHT22;40582;53.100;6.686;2023-03-01T06:37:14;-0.40;99.90
54684;DHT22;40582;53.100;6.686;2023-03-01T06:39:40;-1.80;99.90
54684;DHT22;40582;53.100;6.686;2023-03-01T06:42:10;-1.80;99.90
54684;DHT22;40582;53.100;6.686;2023-03-01T06:44:37;-1.80;99.90
54684;DHT22;40582;53.100;6.686;2023-03-01T06:47:03;-1.00;99.90
54684;DHT22;40582;53.100;6.686;2023-03-01T06:49:28;-1.50;99.90
54684;DHT22;40582;53.100;6.686;2023-03-01T06:51:54;-1.00;99.90
54684;DHT22;40582;53.100;6.686;2023-03-01T06:54:20;-0.70;99.90
54684;DHT22;40582;53.100;6.686;2023-03-01T06:56:48;-1.60;99.90
54684;DHT22;40582;53.100;6.686;2023-03-01T06:59:16;-0.90;99.90
54684;DHT22;40582;53.100;6.686;2023-03-01T07:01:41;-1.50;99.90
54684;DHT22;40582;53.100;6.686;2023-03-01T07:04:07;-1.40;99.90
54684;DHT22;40582;53.100;6.686;2023-03-01T07:06:33;-1.40;99.90
54684;DHT22;40582;53.100;6.686;2023-03-01T07:08:59;-1.30;99.90
54684;DHT22;40582;53.100;6.686;2023-03-01T07:11:24;-1.30;99.90
54684;DHT22;40582;53.100;6.686;2023-03-01T07:13:50;-1.30;99.90
54684;DHT22;40582;53.100;6.686;2023-03-01T07:16:16;-1.20;99.90
54684;DHT22;40582;53.100;6.686;2023-03-01T07:18:41;-1.10;99.90
54684;DHT22;40582;53.100;6.686;2023-03-01T07:21:09;-0.90;99.90
54684;DHT22;40582;53.100;6.686;2023-03-01T07:23:36;-0.30;99.90
54684;DHT22;40582;53.100;6.686;2023-03-01T07:26:02;-0.90;99.90
54684;DHT22;40582;53.100;6.686;2023-03-01T07:28:28;-0.90;99.90
54684;DHT22;40582;53.100;6.686;2023-03-01T07:30:54;-0.90;99.90
54684;DHT22;40582;53.100;6.686;2023-03-01T07:33:20;-0.40;99.90
54684;DHT22;40582;53.100;6.686;2023-03-01T07:35:46;-0.20;99.90
54684;DHT22;40582;53.100;6.686;2023-03-01T07:38:11;-0.60;99.90
54684;DHT22;40582;53.100;6.686;2023-03-01T07:40:37;-0.50;99.90
54684;DHT22;40582;53.100;6.686;2023-03-01T07:43:03;-0.20;99.90
54684;DHT22;40582;53.100;6.686;2023-03-01T07:45:29;-0.30;99.90
54684;DHT22;40582;53.100;6.686;2023-03-01T07:47:55;0.40;99.90
54684;DHT22;40582;53.100;6.686;2023-03-01T07:50:22;-0.10;99.90
54684;DHT22;40582;53.100;6.686;2023-03-01T07:52:49;0.60;99.90
54684;DHT22;40582;53.100;6.686;2023-03-01T07:55:15;0.10;99.90
54684;DHT22;40582;53.100;6.686;2023-03-01T07:57:42;0.20;99.90
54684;DHT22;40582;53.100;6.686;2023-03-01T08:00:10;0.40;99.90
54684;DHT22;40582;53.100;6.686;2023-03-01T08:02:36;0.50;99.90
54684;DHT22;40582;53.100;6.686;2023-03-01T08:05:02;0.50;99.90
54684;DHT22;40582;53.100;6.686;2023-03-01T08:07:28;0.60;99.90
54684;DHT22;40582;53.100;6.686;2023-03-01T08:09:54;0.80;99.90
54684;DHT22;40582;53.100;6.686;2023-03-01T08:12:19;0.70;99.90
54684;DHT22;40582;53.100;6.686;2023-03-01T08:14:45;1.40;99.90
54684;DHT22;40582;53.100;6.686;2023-03-01T08:17:13;0.70;99.90
54684;DHT22;40582;53.100;6.686;2023-03-01T08:19:39;0.80;99.90
54684;DHT22;40582;53.100;6.686;2023-03-01T08:22:05;1.20;99.90
54684;DHT22;40582;53.100;6.686;2023-03-01T08:24:31;1.10;99.90
54684;DHT22;40582;53.100;6.686;2023-03-01T08:26:56;1.90;99.90
54684;DHT22;40582;53.100;6.686;2023-03-01T08:29:22;1.20;99.90
54684;DHT22;40582;53.100;6.686;2023-03-01T08:31:50;1.40;99.90
54684;DHT22;40582;53.100;6.686;2023-03-01T08:34:18;1.70;99.90
54684;DHT22;40582;53.100;6.686;2023-03-01T08:36:45;1.50;99.90
54684;DHT22;40582;53.100;6.686;2023-03-01T08:39:13;1.70;99.90
54684;DHT22;40582;53.100;6.686;2023-03-01T08:41:40;1.90;99.90
54684;DHT22;40582;53.100;6.686;2023-03-01T08:44:06;2.10;99.90
54684;DHT22;40582;53.100;6.686;2023-03-01T08:46:34;2.50;99.90
54684;DHT22;40582;53.100;6.686;2023-03-01T08:49:07;2.40;99.90
54684;DHT22;40582;53.100;6.686;2023-03-01T08:51:33;2.60;99.90
54684;DHT22;40582;53.100;6.686;2023-03-01T08:54:19;2.70;99.90
54684;DHT22;40582;53.100;6.686;2023-03-01T08:56:46;2.80;99.90
54684;DHT22;40582;53.100;6.686;2023-03-01T08:59:12;2.80;99.90
54684;DHT22;40582;53.100;6.686;2023-03-01T09:01:38;2.70;99.90
54684;DHT22;40582;53.100;6.686;2023-03-01T09:04:05;2.70;99.90
54684;DHT22;40582;53.100;6.686;2023-03-01T09:06:33;2.80;99.90
54684;DHT22;40582;53.100;6.686;2023-03-01T09:08:59;2.90;99.90
54684;DHT22;40582;53.100;6.686;2023-03-01T09:11:25;2.90;99.90
54684;DHT22;40582;53.100;6.686;2023-03-01T09:13:50;2.90;99.90
54684;DHT22;40582;53.100;6.686;2023-03-01T09:16:19;2.90;99.90
54684;DHT22;40582;53.100;6.686;2023-03-01T09:18:48;2.80;99.90
54684;DHT22;40582;53.100;6.686;2023-03-01T09:21:15;2.80;99.90
54684;DHT22;40582;53.100;6.686;2023-03-01T09:23:43;2.90;99.90
54684;DHT22;40582;53.100;6.686;2023-03-01T09:26:11;3.00;99.90
54684;DHT22;40582;53.100;6.686;2023-03-01T09:28:38;3.20;99.90
54684;DHT22;40582;53.100;6.686;2023-03-01T09:31:04;3.20;99.90
54684;DHT22;40582;53.100;6.686;2023-03-01T09:33:31;3.20;99.90
54684;DHT22;40582;53.100;6.686;2023-03-01T09:36:06;3.30;99.90
54684;DHT22;40582;53.100;6.686;2023-03-01T09:38:33;3.40;99.90
54684;DHT22;40582;53.100;6.686;2023-03-01T09:41:00;3.50;99.90
54684;DHT22;40582;53.100;6.686;2023-03-01T09:46:10;3.60;99.90
54684;DHT22;40582;53.100;6.686;2023-03-01T09:48:57;3.60;99.90
54684;DHT22;40582;53.100;6.686;2023-03-01T09:51:32;3.60;99.90
54684;DHT22;40582;53.100;6.686;2023-03-01T09:54:01;3.50;99.90
54684;DHT22;40582;53.100;6.686;2023-03-01T09:56:34;3.50;99.90
54684;DHT22;40582;53.100;6.686;2023-03-01T10:01:50;3.60;99.90
54684;DHT22;40582;53.100;6.686;2023-03-01T10:09:49;4.00;99.90
54684;DHT22;40582;53.100;6.686;2023-03-01T10:12:33;4.00;99.90
54684;DHT22;40582;53.100;6.686;2023-03-01T10:15:14;4.10;99.90
54684;DHT22;40582;53.100;6.686;2023-03-01T10:20:22;4.40;99.90
54684;DHT22;40582;53.100;6.686;2023-03-01T10:22:48;4.60;99.90
54684;DHT22;40582;53.100;6.686;2023-03-01T10:28:26;4.80;99.90
54684;DHT22;40582;53.100;6.686;2023-03-01T10:30:57;4.90;99.90
54684;DHT22;40582;53.100;6.686;2023-03-01T10:33:24;5.00;99.90
54684;DHT22;40582;53.100;6.686;2023-03-01T10:35:50;5.20;99.90
54684;DHT22;40582;53.100;6.686;2023-03-01T10:38:18;5.30;99.90
54684;DHT22;40582;53.100;6.686;2023-03-01T10:43:46;5.60;99.90
54684;DHT22;40582;53.100;6.686;2023-03-01T10:51:43;6.10;99.90
54684;DHT22;40582;53.100;6.686;2023-03-01T10:54:32;6.20;99.90
54684;DHT22;40582;53.100;6.686;2023-03-01T10:57:00;6.30;99.90
54684;DHT22;40582;53.100;6.686;2023-03-01T10:59:31;6.40;99.90
54684;DHT22;40582;53.100;6.686;2023-03-01T11:04:35;6.60;99.90
54684;DHT22;40582;53.100;6.686;2023-03-01T11:07:01;6.60;99.90
54684;DHT22;40582;53.100;6.686;2023-03-01T11:09:31;6.70;99.90
54684;DHT22;40582;53.100;6.686;2023-03-01T11:12:05;6.80;99.90
54684;DHT22;40582;53.100;6.686;2023-03-01T11:14:36;6.80;99.90
54684;DHT22;40582;53.100;6.686;2023-03-01T11:19:32;6.90;99.90
54684;DHT22;40582;53.100;6.686;2023-03-01T11:22:06;6.90;99.90
54684;DHT22;40582;53.100;6.686;2023-03-01T11:24:47;7.10;99.90
54684;DHT22;40582;53.100;6.686;2023-03-01T11:27:25;7.10;99.90
54684;DHT22;40582;53.100;6.686;2023-03-01T11:30:09;7.00;99.90
54684;DHT22;40582;53.100;6.686;2023-03-01T11:32:47;7.10;99.90
54684;DHT22;40582;53.100;6.686;2023-03-01T11:35:25;7.20;99.90
54684;DHT22;40582;53.100;6.686;2023-03-01T11:38:21;7.30;99.90
54684;DHT22;40582;53.100;6.686;2023-03-01T11:41:16;7.30;99.90
54684;DHT22;40582;53.100;6.686;2023-03-01T11:44:02;7.40;99.90
54684;DHT22;40582;53.100;6.686;2023-03-01T12:11:29;7.60;99.90
54684;DHT22;40582;53.100;6.686;2023-03-01T12:17:02;7.70;99.90
54684;DHT22;40582;53.100;6.686;2023-03-01T12:22:27;7.80;99.90
54684;DHT22;40582;53.100;6.686;2023-03-01T12:38:10;7.90;99.90
54684;DHT22;40582;53.100;6.686;2023-03-01T12:43:58;8.00;99.90
54684;DHT22;40582;53.100;6.686;2023-03-01T12:46:47;8.00;99.90
54684;DHT22;40582;53.100;6.686;2023-03-01T12:49:26;8.00;99.90
54684;DHT22;40582;53.100;6.686;2023-03-01T12:52:19;8.00;99.90
54684;DHT22;40582;53.100;6.686;2023-03-01T12:54:49;8.00;99.90
54684;DHT22;40582;53.100;6.686;2023-03-01T12:57:33;8.10;99.90
54684;DHT22;40582;53.100;6.686;2023-03-01T13:02:56;8.00;99.90
54684;DHT22;40582;53.100;6.686;2023-03-01T13:05:52;8.00;99.90
54684;DHT22;40582;53.100;6.686;2023-03-01T13:11:05;8.10;99.90
54684;DHT22;40582;53.100;6.686;2023-03-01T13:13:31;8.10;99.90
54684;DHT22;40582;53.100;6.686;2023-03-01T13:15:57;8.10;99.90
54684;DHT22;40582;53.100;6.686;2023-03-01T13:18:43;8.10;99.90
54684;DHT22;40582;53.100;6.686;2023-03-01T13:21:08;8.00;99.90
54684;DHT22;40582;53.100;6.686;2023-03-01T13:23:37;8.00;99.90
54684;DHT22;40582;53.100;6.686;2023-03-01T13:28:50;8.10;99.90
54684;DHT22;40582;53.100;6.686;2023-03-01T13:33:43;8.10;99.90
54684;DHT22;40582;53.100;6.686;2023-03-01T13:36:10;8.10;99.90
54684;DHT22;40582;53.100;6.686;2023-03-01T13:38:48;8.10;99.90
54684;DHT22;40582;53.100;6.686;2023-03-01T13:44:30;8.20;99.90
54684;DHT22;40582;53.100;6.686;2023-03-01T13:49:46;8.20;99.90
54684;DHT22;40582;53.100;6.686;2023-03-01T13:58:05;8.30;99.90
54684;DHT22;40582;53.100;6.686;2023-03-01T14:00:39;8.20;99.90
54684;DHT22;40582;53.100;6.686;2023-03-01T14:03:10;8.20;99.90
54684;DHT22;40582;53.100;6.686;2023-03-01T14:05:37;8.20;99.90
54684;DHT22;40582;53.100;6.686;2023-03-01T14:08:04;8.10;99.90
54684;DHT22;40582;53.100;6.686;2023-03-01T14:19:18;7.90;99.90
54684;DHT22;40582;53.100;6.686;2023-03-01T14:21:46;7.90;99.90
54684;DHT22;40582;53.100;6.686;2023-03-01T14:24:22;7.80;99.90
54684;DHT22;40582;53.100;6.686;2023-03-01T14:26:49;7.70;99.90
54684;DHT22;40582;53.100;6.686;2023-03-01T14:29:34;7.60;99.90
54684;DHT22;40582;53.100;6.686;2023-03-01T14:34:35;7.50;99.90
54684;DHT22;40582;53.100;6.686;2023-03-01T14:37:31;7.50;99.90
54684;DHT22;40582;53.100;6.686;2023-03-01T14:39:59;7.50;99.90
54684;DHT22;40582;53.100;6.686;2023-03-01T14:42:33;7.40;99.90
54684;DHT22;40582;53.100;6.686;2023-03-01T14:45:00;7.50;99.90
54684;DHT22;40582;53.100;6.686;2023-03-01T14:47:32;7.40;99.90
54684;DHT22;40582;53.100;6.686;2023-03-01T14:50:07;7.40;99.90
54684;DHT22;40582;53.100;6.686;2023-03-01T14:52:36;7.40;99.90
54684;DHT22;40582;53.100;6.686;2023-03-01T14:55:05;7.30;99.90
54684;DHT22;40582;53.100;6.686;2023-03-01T14:57:31;7.30;99.90
54684;DHT22;40582;53.100;6.686;2023-03-01T15:00:00;7.30;99.90
54684;DHT22;40582;53.100;6.686;2023-03-01T15:02:30;7.20;99.90
54684;DHT22;40582;53.100;6.686;2023-03-01T15:04:58;7.20;99.90
54684;DHT22;40582;53.100;6.686;2023-03-01T15:07:35;7.20;99.90
54684;DHT22;40582;53.100;6.686;2023-03-01T15:10:04;7.20;99.90
54684;DHT22;40582;53.100;6.686;2023-03-01T15:12:37;7.20;99.90
54684;DHT22;40582;53.100;6.686;2023-03-01T15:16:04;7.20;99.90
54684;DHT22;40582;53.100;6.686;2023-03-01T15:18:25;7.20;99.90
54684;DHT22;40582;53.100;6.686;2023-03-01T15:20:52;7.20;99.90
54684;DHT22;40582;53.100;6.686;2023-03-01T15:23:24;7.20;99.90
54684;DHT22;40582;53.100;6.686;2023-03-01T15:25:52;7.20;99.90
54684;DHT22;40582;53.100;6.686;2023-03-01T15:28:27;7.10;99.90
54684;DHT22;40582;53.100;6.686;2023-03-01T15:31:03;7.10;99.90
54684;DHT22;40582;53.100;6.686;2023-03-01T15:33:35;7.10;99.90
54684;DHT22;40582;53.100;6.686;2023-03-01T15:38:52;7.00;99.90
54684;DHT22;40582;53.100;6.686;2023-03-01T15:41:31;7.10;99.90
54684;DHT22;40582;53.100;6.686;2023-03-01T15:44:14;7.00;99.90
54684;DHT22;40582;53.100;6.686;2023-03-01T15:46:46;7.00;99.90
54684;DHT22;40582;53.100;6.686;2023-03-01T15:49:43;6.90;99.90
54684;DHT22;40582;53.100;6.686;2023-03-01T15:52:19;6.90;99.90
54684;DHT22;40582;53.100;6.686;2023-03-01T15:54:46;6.90;99.90
54684;DHT22;40582;53.100;6.686;2023-03-01T15:57:13;6.90;99.90
54684;DHT22;40582;53.100;6.686;2023-03-01T15:59:41;6.90;99.90
54684;DHT22;40582;53.100;6.686;2023-03-01T16:02:13;6.80;99.90
54684;DHT22;40582;53.100;6.686;2023-03-01T16:04:39;6.70;99.90
54684;DHT22;40582;53.100;6.686;2023-03-01T16:07:05;6.70;99.90
54684;DHT22;40582;53.100;6.686;2023-03-01T16:09:31;6.70;99.90
54684;DHT22;40582;53.100;6.686;2023-03-01T16:11:57;6.60;99.90
54684;DHT22;40582;53.100;6.686;2023-03-01T16:14:23;6.60;99.90
54684;DHT22;40582;53.100;6.686;2023-03-01T16:16:49;6.50;99.90
54684;DHT22;40582;53.100;6.686;2023-03-01T16:19:15;6.50;99.90
54684;DHT22;40582;53.100;6.686;2023-03-01T16:21:42;6.40;99.90
54684;DHT22;40582;53.100;6.686;2023-03-01T16:24:09;6.30;99.90
54684;DHT22;40582;53.100;6.686;2023-03-01T16:26:36;6.20;99.90
54684;DHT22;40582;53.100;6.686;2023-03-01T16:29:03;6.20;99.90
54684;DHT22;40582;53.100;6.686;2023-03-01T16:31:29;6.10;99.90
54684;DHT22;40582;53.100;6.686;2023-03-01T16:33:57;6.00;99.90
54684;DHT22;40582;53.100;6.686;2023-03-01T16:36:25;5.90;99.90
54684;DHT22;40582;53.100;6.686;2023-03-01T16:38:52;5.90;99.90
54684;DHT22;40582;53.100;6.686;2023-03-01T16:41:20;5.80;99.90
54684;DHT22;40582;53.100;6.686;2023-03-01T16:43:47;5.70;99.90
54684;DHT22;40582;53.100;6.686;2023-03-01T16:46:18;5.60;99.90
54684;DHT22;40582;53.100;6.686;2023-03-01T16:48:45;5.50;99.90
54684;DHT22;40582;53.100;6.686;2023-03-01T16:51:11;5.50;99.90
54684;DHT22;40582;53.100;6.686;2023-03-01T16:53:38;5.40;99.90
54684;DHT22;40582;53.100;6.686;2023-03-01T16:56:06;5.30;99.90
54684;DHT22;40582;53.100;6.686;2023-03-01T16:58:34;5.20;99.90
54684;DHT22;40582;53.100;6.686;2023-03-01T17:01:11;5.20;99.90
54684;DHT22;40582;53.100;6.686;2023-03-01T17:03:39;5.10;99.90
54684;DHT22;40582;53.100;6.686;2023-03-01T17:06:07;5.10;99.90
54684;DHT22;40582;53.100;6.686;2023-03-01T17:08:33;5.00;99.90
54684;DHT22;40582;53.100;6.686;2023-03-01T17:11:16;4.90;99.90
54684;DHT22;40582;53.100;6.686;2023-03-01T17:13:43;4.90;99.90
54684;DHT22;40582;53.100;6.686;2023-03-01T17:16:11;4.70;99.90
54684;DHT22;40582;53.100;6.686;2023-03-01T17:18:37;4.70;99.90
54684;DHT22;40582;53.100;6.686;2023-03-01T17:21:03;4.60;99.90
54684;DHT22;40582;53.100;6.686;2023-03-01T17:23:30;4.50;99.90
54684;DHT22;40582;53.100;6.686;2023-03-01T17:25:57;4.40;99.90
54684;DHT22;40582;53.100;6.686;2023-03-01T17:28:26;4.40;99.90
54684;DHT22;40582;53.100;6.686;2023-03-01T17:30:52;4.30;99.90
54684;DHT22;40582;53.100;6.686;2023-03-01T17:33:18;4.40;99.90
54684;DHT22;40582;53.100;6.686;2023-03-01T17:35:45;4.50;99.90
54684;DHT22;40582;53.100;6.686;2023-03-01T17:38:13;4.20;99.90
54684;DHT22;40582;53.100;6.686;2023-03-01T17:40:40;4.40;99.90
54684;DHT22;40582;53.100;6.686;2023-03-01T17:43:06;4.00;99.90
54684;DHT22;40582;53.100;6.686;2023-03-01T17:45:32;3.90;99.90
54684;DHT22;40582;53.100;6.686;2023-03-01T17:47:57;3.90;99.90
54684;DHT22;40582;53.100;6.686;2023-03-01T17:50:23;3.80;99.90
54684;DHT22;40582;53.100;6.686;2023-03-01T17:52:49;3.90;99.90
54684;DHT22;40582;53.100;6.686;2023-03-01T17:55:15;4.10;99.90
54684;DHT22;40582;53.100;6.686;2023-03-01T17:57:41;3.90;99.90
54684;DHT22;40582;53.100;6.686;2023-03-01T18:00:10;3.90;99.90